sensor_id;sensor_type;location;lat;lon;timestamp;temperature;humidity
67750;DHT22;54550;48.838;8.828;2023-04-01T00:00:20;7.50;99.90
67750;DHT22;54550;48.838;8.828;2023-04-01T00:02:46;7.50;99.90
67750;DHT22;54550;48.838;8.828;2023-04-01T00:05:11;7.60;99.90
67750;DHT22;54550;48.838;8.828;2023-04-01T00:07:38;7.70;99.90
67750;DHT22;54550;48.838;8.828;2023-04-01T00:10:06;7.70;99.90
67750;DHT22;54550;48.838;8.828;2023-04-01T00:12:32;7.50;99.90
67750;DHT22;54550;48.838;8.828;2023-04-01T00:14:58;7.30;99.90
67750;DHT22;54550;48.838;8.828;2023-04-01T00:17:23;7.20;99.90
67750;DHT22;54550;48.838;8.828;2023-04-01T00:19:49;7.10;99.90
67750;DHT22;54550;48.838;8.828;2023-04-01T00:22:15;7.00;99.90
67750;DHT22;54550;48.838;8.828;2023-04-01T00:24:40;7.10;99.90
67750;DHT22;54550;48.838;8.828;2023-04-01T00:27:06;7.10;99.90
67750;DHT22;54550;48.838;8.828;2023-04-01T00:29:33;7.10;99.90
67750;DHT22;54550;48.838;8.828;2023-04-01T00:31:59;7.10;99.90
67750;DHT22;54550;48.838;8.828;2023-04-01T00:34:25;7.20;99.90
67750;DHT22;54550;48.838;8.828;2023-04-01T00:36:51;7.30;99.90
67750;DHT22;54550;48.838;8.828;2023-04-01T00:39:20;7.40;99.90
67750;DHT22;54550;48.838;8.828;2023-04-01T00:41:46;7.40;99.90
67750;DHT22;54550;48.838;8.828;2023-04-01T00:44:18;7.40;99.90
67750;DHT22;54550;48.838;8.828;2023-04-01T00:46:44;7.40;99.90
67750;DHT22;54550;48.838;8.828;2023-04-01T00:49:10;7.40;99.90
67750;DHT22;54550;48.838;8.828;2023-04-01T00:51:37;7.40;99.90
67750;DHT22;54550;48.838;8.828;2023-04-01T00:54:04;7.50;99.90
67750;DHT22;54550;48.838;8.828;2023-04-01T00:56:36;7.50;99.90
67750;DHT22;54550;48.838;8.828;2023-04-01T00:59:34;7.50;99.90
67750;DHT22;54550;48.838;8.828;2023-04-01T01:02:02;7.40;99.90
67750;DHT22;54550;48.838;8.828;2023-04-01T01:04:32;7.40;99.90
67750;DHT22;54550;48.838;8.828;2023-04-01T01:27:25;7.60;99.90
67750;DHT22;54550;48.838;8.828;2023-04-01T01:30:09;7.60;99.90
67750;DHT22;54550;48.838;8.828;2023-04-01T01:33:01;7.70;99.90
67750;DHT22;54550;48.838;8.828;2023-04-01T01:35:40;7.70;99.90
67750;DHT22;54550;48.838;8.828;2023-04-01T01:38:13;7.80;99.90
67750;DHT22;54550;48.838;8.828;2023-04-01T01:40:42;7.80;99.90
67750;DHT22;54550;48.838;8.828;2023-04-01T01:43:12;7.70;99.90
67750;DHT22;54550;48.838;8.828;2023-04-01T01:45:46;7.70;99.90
67750;DHT22;54550;48.838;8.828;2023-04-01T01:48:14;7.70;99.90
67750;DHT22;54550;48.838;8.828;2023-04-01T01:50:41;7.70;99.90
67750;DHT22;54550;48.838;8.828;2023-04-01T01:53:10;7.60;99.90
67750;DHT22;54550;48.838;8.828;2023-04-01T01:55:39;7.60;99.90
67750;DHT22;54550;48.838;8.828;2023-04-01T01:58:28;7.70;99.90
67750;DHT22;54550;48.838;8.828;2023-04-01T02:00:59;7.70;99.90
67750;DHT22;54550;48.838;8.828;2023-04-01T02:03:28;7.70;99.90
67750;DHT22;54550;48.838;8.828;2023-04-01T02:05:57;7.70;99.90
67750;DHT22;54550;48.838;8.828;2023-04-01T02:08:41;7.70;99.90
67750;DHT22;54550;48.838;8.828;2023-04-01T02:11:13;7.70;99.90
67750;DHT22;54550;48.838;8.828;2023-04-01T02:16:23;7.70;99.90
67750;DHT22;54550;48.838;8.828;2023-04-01T02:18:52;7.70;99.90
67750;DHT22;54550;48.838;8.828;2023-04-01T02:21:21;7.70;99.90
67750;DHT22;54550;48.838;8.828;2023-04-01T02:23:49;7.70;99.90
67750;DHT22;54550;48.838;8.828;2023-04-01T02:26:16;7.60;99.90
67750;DHT22;54550;48.838;8.828;2023-04-01T02:28:42;7.50;99.90
67750;DHT22;54550;48.838;8.828;2023-04-01T02:31:11;7.50;99.90
67750;DHT22;54550;48.838;8.828;2023-04-01T02:33:38;7.40;99.90
67750;DHT22;54550;48.838;8.828;2023-04-01T02:36:05;7.20;99.90
67750;DHT22;54550;48.838;8.828;2023-04-01T02:38:31;7.10;99.90
67750;DHT22;54550;48.838;8.828;2023-04-01T02:40:59;7.00;99.90
67750;DHT22;54550;48.838;8.828;2023-04-01T02:43:26;7.00;99.90
67750;DHT22;54550;48.838;8.828;2023-04-01T02:45:52;6.90;99.90
67750;DHT22;54550;48.838;8.828;2023-04-01T02:48:17;6.80;99.90
67750;DHT22;54550;48.838;8.828;2023-04-01T02:50:43;6.80;99.90
67750;DHT22;54550;48.838;8.828;2023-04-01T02:53:09;6.70;99.90
67750;DHT22;54550;48.838;8.828;2023-04-01T02:55:34;6.60;99.90
67750;DHT22;54550;48.838;8.828;2023-04-01T02:58:00;6.60;99.90
67750;DHT22;54550;48.838;8.828;2023-04-01T03:00:26;6.60;99.90
67750;DHT22;54550;48.838;8.828;2023-04-01T03:02:52;6.70;99.90
67750;DHT22;54550;48.838;8.828;2023-04-01T03:05:18;6.70;99.90
67750;DHT22;54550;48.838;8.828;2023-04-01T03:07:44;6.70;99.90
67750;DHT22;54550;48.838;8.828;2023-04-01T03:10:09;6.60;99.90
67750;DHT22;54550;48.838;8.828;2023-04-01T03:12:35;6.50;99.90
67750;DHT22;54550;48.838;8.828;2023-04-01T03:15:01;6.40;99.90
67750;DHT22;54550;48.838;8.828;2023-04-01T03:17:26;6.40;99.90
67750;DHT22;54550;48.838;8.828;2023-04-01T03:19:52;6.30;99.90
67750;DHT22;54550;48.838;8.828;2023-04-01T03:22:18;6.30;99.90
67750;DHT22;54550;48.838;8.828;2023-04-01T03:24:49;6.20;99.90
67750;DHT22;54550;48.838;8.828;2023-04-01T03:27:15;6.20;99.90
67750;DHT22;54550;48.838;8.828;2023-04-01T03:29:40;6.20;99.90
67750;DHT22;54550;48.838;8.828;2023-04-01T03:32:06;6.20;99.90
67750;DHT22;54550;48.838;8.828;2023-04-01T03:34:32;6.20;99.90
67750;DHT22;54550;48.838;8.828;2023-04-01T03:36:58;6.30;99.90
67750;DHT22;54550;48.838;8.828;2023-04-01T03:39:24;6.40;99.90
67750;DHT22;54550;48.838;8.828;2023-04-01T03:41:50;6.40;99.90
67750;DHT22;54550;48.838;8.828;2023-04-01T03:44:16;6.30;99.90
67750;DHT22;54550;48.838;8.828;2023-04-01T03:46:41;6.30;99.90
67750;DHT22;54550;48.838;8.828;2023-04-01T03:49:08;6.30;99.90
67750;DHT22;54550;48.838;8.828;2023-04-01T03:51:41;6.30;99.90
67750;DHT22;54550;48.838;8.828;2023-04-01T03:54:08;6.40;99.90
67750;DHT22;54550;48.838;8.828;2023-04-01T03:56:33;6.40;99.90
67750;DHT22;54550;48.838;8.828;2023-04-01T03:59:02;6.40;99.90
67750;DHT22;54550;48.838;8.828;2023-04-01T04:01:29;6.50;99.90
67750;DHT22;54550;48.838;8.828;2023-04-01T04:03:55;6.60;99.90
67750;DHT22;54550;48.838;8.828;2023-04-01T04:06:22;6.70;99.90
67750;DHT22;54550;48.838;8.828;2023-04-01T04:08:47;6.80;99.90
67750;DHT22;54550;48.838;8.828;2023-04-01T04:11:13;6.80;99.90
67750;DHT22;54550;48.838;8.828;2023-04-01T04:13:39;6.90;99.90
67750;DHT22;54550;48.838;8.828;2023-04-01T04:16:05;6.90;99.90
67750;DHT22;54550;48.838;8.828;2023-04-01T04:18:30;6.90;99.90
67750;DHT22;54550;48.838;8.828;2023-04-01T04:20:56;6.80;99.90
67750;DHT22;54550;48.838;8.828;2023-04-01T04:23:22;6.80;99.90
67750;DHT22;54550;48.838;8.828;2023-04-01T04:25:58;6.90;99.90
67750;DHT22;54550;48.838;8.828;2023-04-01T04:28:25;6.90;99.90
67750;DHT22;54550;48.838;8.828;2023-04-01T04:30:51;6.90;99.90
67750;DHT22;54550;48.838;8.828;2023-04-01T04:33:17;6.90;99.90
67750;DHT22;54550;48.838;8.828;2023-04-01T04:35:43;6.90;99.90
67750;DHT22;54550;48.838;8.828;2023-04-01T04:38:08;7.00;99.90
67750;DHT22;54550;48.838;8.828;2023-04-01T04:40:36;6.90;99.90
67750;DHT22;54550;48.838;8.828;2023-04-01T04:43:02;6.90;99.90
67750;DHT22;54550;48.838;8.828;2023-04-01T04:45:28;6.80;99.90
67750;DHT22;54550;48.838;8.828;2023-04-01T04:47:54;6.70;99.90
67750;DHT22;54550;48.838;8.828;2023-04-01T04:50:20;6.60;99.90
67750;DHT22;54550;48.838;8.828;2023-04-01T04:52:45;6.70;99.90
67750;DHT22;54550;48.838;8.828;2023-04-01T04:55:11;6.70;99.90
67750;DHT22;54550;48.838;8.828;2023-04-01T04:57:36;6.70;99.90
67750;DHT22;54550;48.838;8.828;2023-04-01T05:00:02;6.70;99.90
67750;DHT22;54550;48.838;8.828;2023-04-01T05:02:29;6.60;99.90
67750;DHT22;54550;48.838;8.828;2023-04-01T05:04:54;6.60;99.90
67750;DHT22;54550;48.838;8.828;2023-04-01T05:07:20;6.60;99.90
67750;DHT22;54550;48.838;8.828;2023-04-01T05:09:45;6.50;99.90
67750;DHT22;54550;48.838;8.828;2023-04-01T05:12:12;6.50;99.90
67750;DHT22;54550;48.838;8.828;2023-04-01T05:14:38;6.50;99.90
67750;DHT22;54550;48.838;8.828;2023-04-01T05:17:11;6.50;99.90
67750;DHT22;54550;48.838;8.828;2023-04-01T05:19:37;6.60;99.90
67750;DHT22;54550;48.838;8.828;2023-04-01T05:22:03;6.70;99.90
67750;DHT22;54550;48.838;8.828;2023-04-01T05:24:30;6.70;99.90
67750;DHT22;54550;48.838;8.828;2023-04-01T05:26:55;6.70;99.90
67750;DHT22;54550;48.838;8.828;2023-04-01T05:29:23;6.70;99.90
67750;DHT22;54550;48.838;8.828;2023-04-01T05:31:48;6.60;99.90
67750;DHT22;54550;48.838;8.828;2023-04-01T05:34:14;6.60;99.90
67750;DHT22;54550;48.838;8.828;2023-04-01T05:36:40;6.60;99.90
67750;DHT22;54550;48.838;8.828;2023-04-01T05:39:07;6.70;99.90
67750;DHT22;54550;48.838;8.828;2023-04-01T05:41:35;6.70;99.90
67750;DHT22;54550;48.838;8.828;2023-04-01T05:44:01;6.80;99.90
67750;DHT22;54550;48.838;8.828;2023-04-01T05:46:26;6.80;99.90
67750;DHT22;54550;48.838;8.828;2023-04-01T05:48:52;6.90;99.90
67750;DHT22;54550;48.838;8.828;2023-04-01T05:51:18;6.90;99.90
67750;DHT22;54550;48.838;8.828;2023-04-01T05:53:43;7.00;99.90
67750;DHT22;54550;48.838;8.828;2023-04-01T05:56:09;7.10;99.90
67750;DHT22;54550;48.838;8.828;2023-04-01T05:58:35;7.00;99.90
67750;DHT22;54550;48.838;8.828;2023-04-01T06:01:06;7.10;99.90
67750;DHT22;54550;48.838;8.828;2023-04-01T06:03:32;7.00;99.90
67750;DHT22;54550;48.838;8.828;2023-04-01T06:05:58;7.00;99.90
67750;DHT22;54550;48.838;8.828;2023-04-01T06:08:26;7.00;99.90
67750;DHT22;54550;48.838;8.828;2023-04-01T06:11:30;7.00;99.90
67750;DHT22;54550;48.838;8.828;2023-04-01T06:16:57;7.00;99.90
67750;DHT22;54550;48.838;8.828;2023-04-01T06:19:47;7.00;99.90
67750;DHT22;54550;48.838;8.828;2023-04-01T06:28:15;6.90;99.90
67750;DHT22;54550;48.838;8.828;2023-04-01T06:30:47;6.80;99.90
67750;DHT22;54550;48.838;8.828;2023-04-01T06:46:33;6.70;99.90
67750;DHT22;54550;48.838;8.828;2023-04-01T06:49:25;6.70;99.90
67750;DHT22;54550;48.838;8.828;2023-04-01T06:52:24;6.80;99.90
67750;DHT22;54550;48.838;8.828;2023-04-01T06:54:58;6.70;99.90
67750;DHT22;54550;48.838;8.828;2023-04-01T06:57:34;6.70;99.90
67750;DHT22;54550;48.838;8.828;2023-04-01T07:00:03;6.70;99.90
67750;DHT22;54550;48.838;8.828;2023-04-01T07:02:34;6.70;99.90
67750;DHT22;54550;48.838;8.828;2023-04-01T07:05:03;6.80;99.90
67750;DHT22;54550;48.838;8.828;2023-04-01T07:07:48;6.70;99.90
67750;DHT22;54550;48.838;8.828;2023-04-01T07:10:35;6.70;99.90
67750;DHT22;54550;48.838;8.828;2023-04-01T07:13:06;6.70;99.90
67750;DHT22;54550;48.838;8.828;2023-04-01T07:15:41;6.70;99.90
67750;DHT22;54550;48.838;8.828;2023-04-01T07:18:21;6.70;99.90
67750;DHT22;54550;48.838;8.828;2023-04-01T07:20:49;6.70;99.90
67750;DHT22;54550;48.838;8.828;2023-04-01T07:23:21;6.70;99.90
67750;DHT22;54550;48.838;8.828;2023-04-01T07:25:53;6.70;99.90
67750;DHT22;54550;48.838;8.828;2023-04-01T07:28:20;6.70;99.90
67750;DHT22;54550;48.838;8.828;2023-04-01T07:42:02;7.10;99.90
67750;DHT22;54550;48.838;8.828;2023-04-01T07:44:59;7.10;99.90
67750;DHT22;54550;48.838;8.828;2023-04-01T07:50:29;7.30;99.90
67750;DHT22;54550;48.838;8.828;2023-04-01T07:53:38;7.30;99.90
67750;DHT22;54550;48.838;8.828;2023-04-01T07:56:34;7.40;99.90
67750;DHT22;54550;48.838;8.828;2023-04-01T07:59:11;7.30;99.90
67750;DHT22;54550;48.838;8.828;2023-04-01T08:05:04;7.30;99.90
67750;DHT22;54550;48.838;8.828;2023-04-01T08:07:49;7.20;99.90
67750;DHT22;54550;48.838;8.828;2023-04-01T08:16:08;7.40;99.90
67750;DHT22;54550;48.838;8.828;2023-04-01T08:18:51;7.30;99.90
67750;DHT22;54550;48.838;8.828;2023-04-01T08:21:32;7.20;99.90
67750;DHT22;54550;48.838;8.828;2023-04-01T08:24:29;7.00;99.90
67750;DHT22;54550;48.838;8.828;2023-04-01T08:26:53;6.90;99.90
67750;DHT22;54550;48.838;8.828;2023-04-01T08:29:22;6.80;99.90
67750;DHT22;54550;48.838;8.828;2023-04-01T08:32:05;6.80;99.90
67750;DHT22;54550;48.838;8.828;2023-04-01T08:34:40;6.80;99.90
67750;DHT22;54550;48.838;8.828;2023-04-01T08:37:19;6.70;99.90
67750;DHT22;54550;48.838;8.828;2023-04-01T08:51:33;7.00;99.90
67750;DHT22;54550;48.838;8.828;2023-04-01T09:00:34;7.60;99.90
67750;DHT22;54550;48.838;8.828;2023-04-01T09:06:20;8.30;99.90
67750;DHT22;54550;48.838;8.828;2023-04-01T09:09:09;8.50;99.90
67750;DHT22;54550;48.838;8.828;2023-04-01T09:19:46;8.50;99.90
67750;DHT22;54550;48.838;8.828;2023-04-01T09:22:24;8.40;99.90
67750;DHT22;54550;48.838;8.828;2023-04-01T09:30:48;8.30;99.90
67750;DHT22;54550;48.838;8.828;2023-04-01T09:33:31;8.20;99.90
67750;DHT22;54550;48.838;8.828;2023-04-01T09:43:55;8.20;99.90
67750;DHT22;54550;48.838;8.828;2023-04-01T09:52:16;8.40;99.90
67750;DHT22;54550;48.838;8.828;2023-04-01T09:54:50;8.60;99.90
67750;DHT22;54550;48.838;8.828;2023-04-01T10:03:41;10.20;99.90
67750;DHT22;54550;48.838;8.828;2023-04-01T10:09:19;11.80;99.90
67750;DHT22;54550;48.838;8.828;2023-04-01T10:20:02;9.70;99.90
67750;DHT22;54550;48.838;8.828;2023-04-01T10:31:54;9.60;99.90
67750;DHT22;54550;48.838;8.828;2023-04-01T10:34:31;9.70;99.90
67750;DHT22;54550;48.838;8.828;2023-04-01T10:53:49;11.10;99.90
67750;DHT22;54550;48.838;8.828;2023-04-01T11:10:43;11.80;99.90
67750;DHT22;54550;48.838;8.828;2023-04-01T11:16:59;11.90;99.90
67750;DHT22;54550;48.838;8.828;2023-04-01T11:22:48;12.60;99.90
67750;DHT22;54550;48.838;8.828;2023-04-01T11:44:26;10.50;99.90
67750;DHT22;54550;48.838;8.828;2023-04-01T11:55:32;10.20;99.90
67750;DHT22;54550;48.838;8.828;2023-04-01T12:15:19;10.20;99.90
67750;DHT22;54550;48.838;8.828;2023-04-01T12:26:30;10.00;99.90
67750;DHT22;54550;48.838;8.828;2023-04-01T12:32:14;9.90;99.90
67750;DHT22;54550;48.838;8.828;2023-04-01T12:37:58;9.80;99.90
67750;DHT22;54550;48.838;8.828;2023-04-01T12:40:30;9.80;99.90
67750;DHT22;54550;48.838;8.828;2023-04-01T12:45:32;9.90;99.90
67750;DHT22;54550;48.838;8.828;2023-04-01T12:53:42;9.50;99.90
67750;DHT22;54550;48.838;8.828;2023-04-01T13:01:49;9.30;99.90
67750;DHT22;54550;48.838;8.828;2023-04-01T13:04:39;9.40;99.90
67750;DHT22;54550;48.838;8.828;2023-04-01T13:13:19;9.80;99.90
67750;DHT22;54550;48.838;8.828;2023-04-01T13:20:59;10.40;99.90
67750;DHT22;54550;48.838;8.828;2023-04-01T13:29:14;10.40;99.90
67750;DHT22;54550;48.838;8.828;2023-04-01T13:45:49;9.80;99.90
67750;DHT22;54550;48.838;8.828;2023-04-01T13:48:26;9.60;99.90
67750;DHT22;54550;48.838;8.828;2023-04-01T13:56:56;9.70;99.90
67750;DHT22;54550;48.838;8.828;2023-04-01T14:05:40;9.50;99.90
67750;DHT22;54550;48.838;8.828;2023-04-01T14:11:19;9.30;99.90
67750;DHT22;54550;48.838;8.828;2023-04-01T14:14:01;9.30;99.90
67750;DHT22;54550;48.838;8.828;2023-04-01T14:22:27;9.30;99.90
67750;DHT22;54550;48.838;8.828;2023-04-01T14:25:27;9.20;99.90
67750;DHT22;54550;48.838;8.828;2023-04-01T14:31:20;9.20;99.90
67750;DHT22;54550;48.838;8.828;2023-04-01T14:34:04;9.30;99.90
67750;DHT22;54550;48.838;8.828;2023-04-01T14:39:49;9.20;99.90
67750;DHT22;54550;48.838;8.828;2023-04-01T14:42:55;9.20;99.90
67750;DHT22;54550;48.838;8.828;2023-04-01T14:48:32;9.00;99.90
67750;DHT22;54550;48.838;8.828;2023-04-01T14:51:09;9.00;99.90
67750;DHT22;54550;48.838;8.828;2023-04-01T14:53:39;8.90;99.90
67750;DHT22;54550;48.838;8.828;2023-04-01T14:56:09;9.00;99.90
67750;DHT22;54550;48.838;8.828;2023-04-01T14:58:44;9.00;99.90
67750;DHT22;54550;48.838;8.828;2023-04-01T15:09:12;8.90;99.90
67750;DHT22;54550;48.838;8.828;2023-04-01T15:11:55;8.90;99.90
67750;DHT22;54550;48.838;8.828;2023-04-01T15:14:37;8.90;99.90
67750;DHT22;54550;48.838;8.828;2023-04-01T15:23:19;8.90;99.90
67750;DHT22;54550;48.838;8.828;2023-04-01T15:37:34;9.20;99.90
67750;DHT22;54550;48.838;8.828;2023-04-01T15:48:38;9.30;99.90
67750;DHT22;54550;48.838;8.828;2023-04-01T15:51:36;9.30;99.90
67750;DHT22;54550;48.838;8.828;2023-04-01T15:57:15;9.20;99.90
67750;DHT22;54550;48.838;8.828;2023-04-01T16:00:09;9.20;99.90
67750;DHT22;54550;48.838;8.828;2023-04-01T16:10:59;9.10;99.90
67750;DHT22;54550;48.838;8.828;2023-04-01T16:13:54;9.10;99.90
67750;DHT22;54550;48.838;8.828;2023-04-01T16:22:00;8.70;99.90
67750;DHT22;54550;48.838;8.828;2023-04-01T16:27:36;8.50;99.90
67750;DHT22;54550;48.838;8.828;2023-04-01T16:33:22;8.50;99.90
67750;DHT22;54550;48.838;8.828;2023-04-01T16:36:07;8.40;99.90
67750;DHT22;54550;48.838;8.828;2023-04-01T16:39:11;8.30;99.90
67750;DHT22;54550;48.838;8.828;2023-04-01T16:47:38;8.30;99.90
67750;DHT22;54550;48.838;8.828;2023-04-01T16:50:30;8.30;99.90
67750;DHT22;54550;48.838;8.828;2023-04-01T16:58:37;8.20;99.90
67750;DHT22;54550;48.838;8.828;2023-04-01T17:01:13;8.20;99.90
67750;DHT22;54550;48.838;8.828;2023-04-01T17:03:44;8.30;99.90
67750;DHT22;54550;48.838;8.828;2023-04-01T17:06:31;8.30;99.90
67750;DHT22;54550;48.838;8.828;2023-04-01T17:23:21;8.30;99.90
67750;DHT22;54550;48.838;8.828;2023-04-01T17:31:16;8.00;99.90
67750;DHT22;54550;48.838;8.828;2023-04-01T17:45:10;7.40;99.90
67750;DHT22;54550;48.838;8.828;2023-04-01T17:50:50;7.20;99.90
67750;DHT22;54550;48.838;8.828;2023-04-01T17:53:31;7.10;99.90
67750;DHT22;54550;48.838;8.828;2023-04-01T17:56:34;6.90;99.90
67750;DHT22;54550;48.838;8.828;2023-04-01T18:02:05;6.80;99.90
67750;DHT22;54550;48.838;8.828;2023-04-01T18:10:48;6.80;99.90
67750;DHT22;54550;48.838;8.828;2023-04-01T18:15:40;6.60;99.90
67750;DHT22;54550;48.838;8.828;2023-04-01T18:23:27;6.50;99.90
67750;DHT22;54550;48.838;8.828;2023-04-01T18:26:10;6.40;99.90
67750;DHT22;54550;48.838;8.828;2023-04-01T18:28:41;6.30;99.90
67750;DHT22;54550;48.838;8.828;2023-04-01T18:31:20;6.30;99.90
67750;DHT22;54550;48.838;8.828;2023-04-01T18:36:43;6.20;99.90
67750;DHT22;54550;48.838;8.828;2023-04-01T18:47:43;6.10;99.90
67750;DHT22;54550;48.838;8.828;2023-04-01T18:50:34;6.00;99.90
67750;DHT22;54550;48.838;8.828;2023-04-01T18:55:59;6.10;99.90
67750;DHT22;54550;48.838;8.828;2023-04-01T18:58:35;6.10;99.90
67750;DHT22;54550;48.838;8.828;2023-04-01T19:04:00;6.20;99.90
67750;DHT22;54550;48.838;8.828;2023-04-01T19:07:25;6.20;99.90
67750;DHT22;54550;48.838;8.828;2023-04-01T19:09:33;6.20;99.90
67750;DHT22;54550;48.838;8.828;2023-04-01T19:12:27;6.20;99.90
67750;DHT22;54550;48.838;8.828;2023-04-01T19:20:42;6.20;99.90
67750;DHT22;54550;48.838;8.828;2023-04-01T19:26:33;6.20;99.90
67750;DHT22;54550;48.838;8.828;2023-04-01T19:32:02;6.20;99.90
67750;DHT22;54550;48.838;8.828;2023-04-01T19:38:03;6.10;99.90
67750;DHT22;54550;48.838;8.828;2023-04-01T19:45:41;6.30;99.90
67750;DHT22;54550;48.838;8.828;2023-04-01T19:50:55;6.50;99.90
67750;DHT22;54550;48.838;8.828;2023-04-01T19:53:40;6.50;99.90
67750;DHT22;54550;48.838;8.828;2023-04-01T19:56:19;6.60;99.90
67750;DHT22;54550;48.838;8.828;2023-04-01T20:01:40;6.70;99.90
67750;DHT22;54550;48.838;8.828;2023-04-01T20:04:33;6.70;99.90
67750;DHT22;54550;48.838;8.828;2023-04-01T20:13:19;6.80;99.90
67750;DHT22;54550;48.838;8.828;2023-04-01T20:16:00;6.80;99.90
67750;DHT22;54550;48.838;8.828;2023-04-01T20:23:45;6.50;99.90
67750;DHT22;54550;48.838;8.828;2023-04-01T20:26:24;6.40;99.90
67750;DHT22;54550;48.838;8.828;2023-04-01T20:31:42;6.40;99.90
67750;DHT22;54550;48.838;8.828;2023-04-01T20:40:40;6.40;99.90
67750;DHT22;54550;48.838;8.828;2023-04-01T20:57:44;6.10;99.90
67750;DHT22;54550;48.838;8.828;2023-04-01T21:06:15;6.00;99.90
67750;DHT22;54550;48.838;8.828;2023-04-01T21:08:51;5.90;99.90
67750;DHT22;54550;48.838;8.828;2023-04-01T21:14:28;5.70;99.90
67750;DHT22;54550;48.838;8.828;2023-04-01T21:17:14;5.70;99.90
67750;DHT22;54550;48.838;8.828;2023-04-01T21:22:46;5.80;99.90
67750;DHT22;54550;48.838;8.828;2023-04-01T21:36:58;5.80;99.90
67750;DHT22;54550;48.838;8.828;2023-04-01T21:47:50;5.90;99.90
67750;DHT22;54550;48.838;8.828;2023-04-01T21:53:37;6.10;99.90
67750;DHT22;54550;48.838;8.828;2023-04-01T21:56:43;6.10;99.90
67750;DHT22;54550;48.838;8.828;2023-04-01T22:05:02;6.40;99.90
67750;DHT22;54550;48.838;8.828;2023-04-01T22:10:16;6.50;99.90
67750;DHT22;54550;48.838;8.828;2023-04-01T22:12:54;6.50;99.90
67750;DHT22;54550;48.838;8.828;2023-04-01T22:15:42;6.50;99.90
67750;DHT22;54550;48.838;8.828;2023-04-01T22:18:25;6.50;99.90
67750;DHT22;54550;48.838;8.828;2023-04-01T22:23:39;6.60;99.90
67750;DHT22;54550;48.838;8.828;2023-04-01T22:26:34;6.50;99.90
67750;DHT22;54550;48.838;8.828;2023-04-01T22:32:13;6.40;99.90
67750;DHT22;54550;48.838;8.828;2023-04-01T22:35:00;6.40;99.90
67750;DHT22;54550;48.838;8.828;2023-04-01T22:37:37;6.30;99.90
67750;DHT22;54550;48.838;8.828;2023-04-01T22:42:54;6.30;99.90
67750;DHT22;54550;48.838;8.828;2023-04-01T22:48:20;6.30;99.90
67750;DHT22;54550;48.838;8.828;2023-04-01T22:51:17;6.30;99.90
67750;DHT22;54550;48.838;8.828;2023-04-01T22:56:36;6.30;99.90
67750;DHT22;54550;48.838;8.828;2023-04-01T23:02:16;6.30;99.90
67750;DHT22;54550;48.838;8.828;2023-04-01T23:04:48;6.30;99.90
67750;DHT22;54550;48.838;8.828;2023-04-01T23:07:24;6.30;99.90
67750;DHT22;54550;48.838;8.828;2023-04-01T23:09:57;6.30;99.90
67750;DHT22;54550;48.838;8.828;2023-04-01T23:12:25;6.30;99.90
67750;DHT22;54550;48.838;8.828;2023-04-01T23:14:56;6.20;99.90
67750;DHT22;54550;48.838;8.828;2023-04-01T23:17:43;6.20;99.90
67750;DHT22;54550;48.838;8.828;2023-04-01T23:20:31;6.20;99.90
67750;DHT22;54550;48.838;8.828;2023-04-01T23:23:19;6.10;99.90
67750;DHT22;54550;48.838;8.828;2023-04-01T23:26:10;6.10;99.90
67750;DHT22;54550;48.838;8.828;2023-04-01T23:28:46;6.00;99.90
67750;DHT22;54550;48.838;8.828;2023-04-01T23:31:32;6.00;99.90
67750;DHT22;54550;48.838;8.828;2023-04-01T23:34:20;6.00;99.90
67750;DHT22;54550;48.838;8.828;2023-04-01T23:36:49;6.00;99.90
67750;DHT22;54550;48.838;8.828;2023-04-01T23:39:42;6.00;99.90
67750;DHT22;54550;48.838;8.828;2023-04-01T23:42:29;5.90;99.90
67750;DHT22;54550;48.838;8.828;2023-04-01T23:45:02;5.90;99.90
67750;DHT22;54550;48.838;8.828;2023-04-01T23:47:34;5.90;99.90
67750;DHT22;54550;48.838;8.828;2023-04-01T23:50:06;5.90;99.90
67750;DHT22;54550;48.838;8.828;2023-04-01T23:52:39;5.90;99.90
67750;DHT22;54550;48.838;8.828;2023-04-01T23:55:17;5.90;99.90
67750;DHT22;54550;48.838;8.828;2023-04-01T23:58:01;5.90;99.90
